sensor_id;sensor_type;location;lat;lon;timestamp;P1;durP1;ratioP1;P2;durP2;ratioP2
12302;SDS011;6214;48.012;7.862;2023-07-31T00:01:18;5.40;;;1.60;;
12302;SDS011;6214;48.012;7.862;2023-07-31T00:03:45;5.72;;;1.50;;
12302;SDS011;6214;48.012;7.862;2023-07-31T00:06:13;5.40;;;1.67;;
12302;SDS011;6214;48.012;7.862;2023-07-31T00:08:40;5.93;;;1.70;;
12302;SDS011;6214;48.012;7.862;2023-07-31T00:11:06;5.88;;;1.60;;
12302;SDS011;6214;48.012;7.862;2023-07-31T00:13:33;6.28;;;1.48;;
12302;SDS011;6214;48.012;7.862;2023-07-31T00:16:01;6.47;;;1.73;;
12302;SDS011;6214;48.012;7.862;2023-07-31T00:18:28;5.77;;;1.77;;
12302;SDS011;6214;48.012;7.862;2023-07-31T00:20:55;4.75;;;1.60;;
12302;SDS011;6214;48.012;7.862;2023-07-31T00:23:22;4.80;;;1.40;;
12302;SDS011;6214;48.012;7.862;2023-07-31T00:25:49;5.90;;;1.50;;
12302;SDS011;6214;48.012;7.862;2023-07-31T00:28:15;5.15;;;1.50;;
12302;SDS011;6214;48.012;7.862;2023-07-31T00:30:42;5.70;;;1.50;;
12302;SDS011;6214;48.012;7.862;2023-07-31T00:33:09;5.20;;;1.50;;
12302;SDS011;6214;48.012;7.862;2023-07-31T00:35:36;5.70;;;1.80;;
12302;SDS011;6214;48.012;7.862;2023-07-31T00:38:03;8.57;;;1.90;;
12302;SDS011;6214;48.012;7.862;2023-07-31T00:40:34;4.70;;;1.30;;
12302;SDS011;6214;48.012;7.862;2023-07-31T00:43:02;4.63;;;1.30;;
12302;SDS011;6214;48.012;7.862;2023-07-31T00:45:30;5.20;;;1.40;;
12302;SDS011;6214;48.012;7.862;2023-07-31T00:47:58;4.85;;;1.30;;
12302;SDS011;6214;48.012;7.862;2023-07-31T00:50:25;4.80;;;1.50;;
12302;SDS011;6214;48.012;7.862;2023-07-31T00:52:54;4.90;;;1.70;;
12302;SDS011;6214;48.012;7.862;2023-07-31T00:55:21;5.10;;;1.52;;
12302;SDS011;6214;48.012;7.862;2023-07-31T00:57:48;6.20;;;1.60;;
12302;SDS011;6214;48.012;7.862;2023-07-31T01:00:18;4.97;;;1.45;;
12302;SDS011;6214;48.012;7.862;2023-07-31T01:02:45;4.80;;;1.40;;
12302;SDS011;6214;48.012;7.862;2023-07-31T01:05:13;5.40;;;1.50;;
12302;SDS011;6214;48.012;7.862;2023-07-31T01:07:52;4.60;;;1.40;;
12302;SDS011;6214;48.012;7.862;2023-07-31T01:10:30;5.50;;;1.80;;
12302;SDS011;6214;48.012;7.862;2023-07-31T01:13:07;4.93;;;1.40;;
12302;SDS011;6214;48.012;7.862;2023-07-31T01:15:36;5.80;;;1.30;;
12302;SDS011;6214;48.012;7.862;2023-07-31T01:18:03;5.10;;;1.40;;
12302;SDS011;6214;48.012;7.862;2023-07-31T01:20:29;6.10;;;1.50;;
12302;SDS011;6214;48.012;7.862;2023-07-31T01:25:56;5.10;;;1.42;;
12302;SDS011;6214;48.012;7.862;2023-07-31T01:31:12;5.80;;;1.63;;
12302;SDS011;6214;48.012;7.862;2023-07-31T01:33:44;5.20;;;1.60;;
12302;SDS011;6214;48.012;7.862;2023-07-31T01:36:12;4.80;;;1.58;;
12302;SDS011;6214;48.012;7.862;2023-07-31T01:38:39;5.20;;;1.63;;
12302;SDS011;6214;48.012;7.862;2023-07-31T01:41:06;4.53;;;1.20;;
12302;SDS011;6214;48.012;7.862;2023-07-31T01:43:33;5.90;;;1.60;;
12302;SDS011;6214;48.012;7.862;2023-07-31T01:46:00;5.43;;;1.50;;
12302;SDS011;6214;48.012;7.862;2023-07-31T01:48:27;6.00;;;1.40;;
12302;SDS011;6214;48.012;7.862;2023-07-31T01:50:53;6.00;;;1.60;;
12302;SDS011;6214;48.012;7.862;2023-07-31T01:53:20;5.57;;;1.60;;
12302;SDS011;6214;48.012;7.862;2023-07-31T01:55:47;6.53;;;1.60;;
12302;SDS011;6214;48.012;7.862;2023-07-31T01:58:14;7.10;;;1.50;;
12302;SDS011;6214;48.012;7.862;2023-07-31T02:00:41;5.50;;;1.40;;
12302;SDS011;6214;48.012;7.862;2023-07-31T02:03:08;5.40;;;1.40;;
12302;SDS011;6214;48.012;7.862;2023-07-31T02:05:36;6.30;;;1.60;;
12302;SDS011;6214;48.012;7.862;2023-07-31T02:08:03;4.80;;;1.50;;
12302;SDS011;6214;48.012;7.862;2023-07-31T02:10:32;5.40;;;1.50;;
12302;SDS011;6214;48.012;7.862;2023-07-31T02:12:59;4.70;;;1.30;;
12302;SDS011;6214;48.012;7.862;2023-07-31T02:15:26;5.00;;;1.40;;
12302;SDS011;6214;48.012;7.862;2023-07-31T02:17:53;6.95;;;1.70;;
12302;SDS011;6214;48.012;7.862;2023-07-31T02:20:20;5.50;;;1.40;;
12302;SDS011;6214;48.012;7.862;2023-07-31T02:22:47;6.10;;;1.50;;
12302;SDS011;6214;48.012;7.862;2023-07-31T02:25:14;5.72;;;1.50;;
12302;SDS011;6214;48.012;7.862;2023-07-31T02:27:41;4.75;;;1.50;;
12302;SDS011;6214;48.012;7.862;2023-07-31T02:30:08;5.13;;;1.70;;
12302;SDS011;6214;48.012;7.862;2023-07-31T02:32:35;5.00;;;1.50;;
12302;SDS011;6214;48.012;7.862;2023-07-31T02:35:03;4.97;;;1.30;;
12302;SDS011;6214;48.012;7.862;2023-07-31T02:37:30;5.70;;;1.50;;
12302;SDS011;6214;48.012;7.862;2023-07-31T02:39:57;5.43;;;1.55;;
12302;SDS011;6214;48.012;7.862;2023-07-31T02:42:24;5.10;;;1.40;;
12302;SDS011;6214;48.012;7.862;2023-07-31T02:44:51;5.07;;;1.40;;
12302;SDS011;6214;48.012;7.862;2023-07-31T02:47:22;5.60;;;1.60;;
12302;SDS011;6214;48.012;7.862;2023-07-31T02:49:49;4.80;;;1.40;;
12302;SDS011;6214;48.012;7.862;2023-07-31T02:52:16;4.88;;;1.50;;
12302;SDS011;6214;48.012;7.862;2023-07-31T02:54:43;6.30;;;1.60;;
12302;SDS011;6214;48.012;7.862;2023-07-31T02:57:10;5.30;;;1.50;;
12302;SDS011;6214;48.012;7.862;2023-07-31T02:59:37;5.70;;;1.30;;
12302;SDS011;6214;48.012;7.862;2023-07-31T03:02:04;6.68;;;1.50;;
12302;SDS011;6214;48.012;7.862;2023-07-31T03:04:32;5.90;;;1.58;;
12302;SDS011;6214;48.012;7.862;2023-07-31T03:06:59;4.70;;;1.30;;
12302;SDS011;6214;48.012;7.862;2023-07-31T03:09:26;5.53;;;1.55;;
12302;SDS011;6214;48.012;7.862;2023-07-31T03:11:53;6.20;;;1.87;;
12302;SDS011;6214;48.012;7.862;2023-07-31T03:14:19;5.35;;;1.70;;
12302;SDS011;6214;48.012;7.862;2023-07-31T03:16:47;5.97;;;1.60;;
12302;SDS011;6214;48.012;7.862;2023-07-31T03:19:14;5.90;;;1.60;;
12302;SDS011;6214;48.012;7.862;2023-07-31T03:21:41;5.00;;;1.40;;
12302;SDS011;6214;48.012;7.862;2023-07-31T03:24:08;5.60;;;1.40;;
12302;SDS011;6214;48.012;7.862;2023-07-31T03:26:35;5.37;;;1.60;;
12302;SDS011;6214;48.012;7.862;2023-07-31T03:29:03;5.63;;;1.70;;
12302;SDS011;6214;48.012;7.862;2023-07-31T03:31:30;5.30;;;1.43;;
12302;SDS011;6214;48.012;7.862;2023-07-31T03:33:57;5.55;;;1.45;;
12302;SDS011;6214;48.012;7.862;2023-07-31T03:36:24;5.30;;;1.50;;
12302;SDS011;6214;48.012;7.862;2023-07-31T03:38:52;5.47;;;1.67;;
12302;SDS011;6214;48.012;7.862;2023-07-31T03:41:19;5.07;;;1.53;;
12302;SDS011;6214;48.012;7.862;2023-07-31T03:43:49;5.60;;;1.70;;
12302;SDS011;6214;48.012;7.862;2023-07-31T03:46:18;4.93;;;1.30;;
12302;SDS011;6214;48.012;7.862;2023-07-31T03:48:45;6.47;;;1.90;;
12302;SDS011;6214;48.012;7.862;2023-07-31T03:51:12;5.50;;;1.80;;
12302;SDS011;6214;48.012;7.862;2023-07-31T03:53:39;5.03;;;1.52;;
12302;SDS011;6214;48.012;7.862;2023-07-31T03:56:06;5.07;;;1.30;;
12302;SDS011;6214;48.012;7.862;2023-07-31T03:58:33;7.10;;;1.77;;
12302;SDS011;6214;48.012;7.862;2023-07-31T04:01:01;5.65;;;1.60;;
12302;SDS011;6214;48.012;7.862;2023-07-31T04:03:29;6.03;;;1.42;;
12302;SDS011;6214;48.012;7.862;2023-07-31T04:05:56;5.25;;;1.60;;
12302;SDS011;6214;48.012;7.862;2023-07-31T04:08:23;6.07;;;1.50;;
12302;SDS011;6214;48.012;7.862;2023-07-31T04:10:50;5.88;;;1.92;;
12302;SDS011;6214;48.012;7.862;2023-07-31T04:13:17;5.88;;;1.48;;
12302;SDS011;6214;48.012;7.862;2023-07-31T04:15:48;5.60;;;1.40;;
12302;SDS011;6214;48.012;7.862;2023-07-31T04:18:16;5.50;;;1.50;;
12302;SDS011;6214;48.012;7.862;2023-07-31T04:20:44;9.80;;;1.80;;
12302;SDS011;6214;48.012;7.862;2023-07-31T04:23:11;5.70;;;1.30;;
12302;SDS011;6214;48.012;7.862;2023-07-31T04:25:38;5.40;;;1.60;;
12302;SDS011;6214;48.012;7.862;2023-07-31T04:28:05;6.15;;;1.70;;
12302;SDS011;6214;48.012;7.862;2023-07-31T04:30:32;5.72;;;1.55;;
12302;SDS011;6214;48.012;7.862;2023-07-31T04:32:59;6.00;;;1.50;;
12302;SDS011;6214;48.012;7.862;2023-07-31T04:35:27;5.50;;;1.30;;
12302;SDS011;6214;48.012;7.862;2023-07-31T04:37:54;5.20;;;1.40;;
12302;SDS011;6214;48.012;7.862;2023-07-31T04:40:21;5.60;;;1.52;;
12302;SDS011;6214;48.012;7.862;2023-07-31T04:42:48;5.50;;;1.70;;
12302;SDS011;6214;48.012;7.862;2023-07-31T04:45:15;6.15;;;1.67;;
12302;SDS011;6214;48.012;7.862;2023-07-31T04:47:42;5.57;;;1.50;;
12302;SDS011;6214;48.012;7.862;2023-07-31T04:50:09;5.20;;;1.73;;
12302;SDS011;6214;48.012;7.862;2023-07-31T04:52:36;5.15;;;1.40;;
12302;SDS011;6214;48.012;7.862;2023-07-31T04:55:04;5.60;;;1.60;;
12302;SDS011;6214;48.012;7.862;2023-07-31T04:57:31;5.95;;;2.00;;
12302;SDS011;6214;48.012;7.862;2023-07-31T04:59:58;5.40;;;1.63;;
12302;SDS011;6214;48.012;7.862;2023-07-31T05:02:25;6.70;;;1.90;;
12302;SDS011;6214;48.012;7.862;2023-07-31T05:04:52;5.40;;;1.60;;
12302;SDS011;6214;48.012;7.862;2023-07-31T05:07:19;5.90;;;1.50;;
12302;SDS011;6214;48.012;7.862;2023-07-31T05:09:47;5.10;;;1.48;;
12302;SDS011;6214;48.012;7.862;2023-07-31T05:12:14;6.80;;;1.80;;
12302;SDS011;6214;48.012;7.862;2023-07-31T05:14:41;5.00;;;1.70;;
12302;SDS011;6214;48.012;7.862;2023-07-31T05:17:08;5.35;;;1.73;;
12302;SDS011;6214;48.012;7.862;2023-07-31T05:19:35;6.47;;;2.10;;
12302;SDS011;6214;48.012;7.862;2023-07-31T05:22:02;5.05;;;1.60;;
12302;SDS011;6214;48.012;7.862;2023-07-31T05:24:29;6.87;;;2.20;;
12302;SDS011;6214;48.012;7.862;2023-07-31T05:26:56;4.97;;;1.50;;
12302;SDS011;6214;48.012;7.862;2023-07-31T05:29:23;5.70;;;1.52;;
12302;SDS011;6214;48.012;7.862;2023-07-31T05:31:50;6.20;;;1.60;;
12302;SDS011;6214;48.012;7.862;2023-07-31T05:34:17;5.50;;;1.60;;
12302;SDS011;6214;48.012;7.862;2023-07-31T05:36:44;5.43;;;1.60;;
12302;SDS011;6214;48.012;7.862;2023-07-31T05:39:11;5.32;;;1.65;;
12302;SDS011;6214;48.012;7.862;2023-07-31T05:41:38;6.90;;;1.70;;
12302;SDS011;6214;48.012;7.862;2023-07-31T05:44:05;5.55;;;1.40;;
12302;SDS011;6214;48.012;7.862;2023-07-31T05:46:32;6.75;;;1.83;;
12302;SDS011;6214;48.012;7.862;2023-07-31T05:48:59;5.75;;;1.48;;
12302;SDS011;6214;48.012;7.862;2023-07-31T05:51:27;5.50;;;1.73;;
12302;SDS011;6214;48.012;7.862;2023-07-31T05:53:54;6.70;;;2.15;;
12302;SDS011;6214;48.012;7.862;2023-07-31T05:56:21;6.22;;;1.60;;
12302;SDS011;6214;48.012;7.862;2023-07-31T05:58:48;5.68;;;1.80;;
12302;SDS011;6214;48.012;7.862;2023-07-31T06:01:16;5.93;;;1.90;;
12302;SDS011;6214;48.012;7.862;2023-07-31T06:03:44;6.20;;;1.75;;
12302;SDS011;6214;48.012;7.862;2023-07-31T06:06:11;6.90;;;1.67;;
12302;SDS011;6214;48.012;7.862;2023-07-31T06:08:39;5.47;;;1.70;;
12302;SDS011;6214;48.012;7.862;2023-07-31T06:11:06;6.33;;;1.67;;
12302;SDS011;6214;48.012;7.862;2023-07-31T06:13:35;6.47;;;1.67;;
12302;SDS011;6214;48.012;7.862;2023-07-31T06:16:02;5.80;;;1.70;;
12302;SDS011;6214;48.012;7.862;2023-07-31T06:18:32;5.82;;;1.60;;
12302;SDS011;6214;48.012;7.862;2023-07-31T06:20:59;6.70;;;1.50;;
12302;SDS011;6214;48.012;7.862;2023-07-31T06:23:27;5.97;;;1.60;;
12302;SDS011;6214;48.012;7.862;2023-07-31T06:25:54;6.25;;;1.40;;
12302;SDS011;6214;48.012;7.862;2023-07-31T06:28:21;5.55;;;1.48;;
12302;SDS011;6214;48.012;7.862;2023-07-31T06:30:48;5.70;;;1.50;;
12302;SDS011;6214;48.012;7.862;2023-07-31T06:33:15;5.25;;;1.52;;
12302;SDS011;6214;48.012;7.862;2023-07-31T06:35:42;5.68;;;1.90;;
12302;SDS011;6214;48.012;7.862;2023-07-31T06:38:09;5.90;;;1.90;;
12302;SDS011;6214;48.012;7.862;2023-07-31T06:40:36;5.90;;;1.60;;
12302;SDS011;6214;48.012;7.862;2023-07-31T06:43:03;7.05;;;2.00;;
12302;SDS011;6214;48.012;7.862;2023-07-31T06:45:35;6.65;;;2.00;;
12302;SDS011;6214;48.012;7.862;2023-07-31T06:48:03;6.50;;;2.10;;
12302;SDS011;6214;48.012;7.862;2023-07-31T06:50:31;6.00;;;2.15;;
12302;SDS011;6214;48.012;7.862;2023-07-31T06:52:58;7.65;;;2.20;;
12302;SDS011;6214;48.012;7.862;2023-07-31T06:55:25;6.25;;;2.13;;
12302;SDS011;6214;48.012;7.862;2023-07-31T06:57:53;6.60;;;2.00;;
12302;SDS011;6214;48.012;7.862;2023-07-31T07:00:21;6.60;;;2.20;;
12302;SDS011;6214;48.012;7.862;2023-07-31T07:02:49;6.70;;;2.20;;
12302;SDS011;6214;48.012;7.862;2023-07-31T07:05:17;5.40;;;1.65;;
12302;SDS011;6214;48.012;7.862;2023-07-31T07:07:44;5.30;;;1.40;;
12302;SDS011;6214;48.012;7.862;2023-07-31T07:10:11;5.10;;;1.50;;
12302;SDS011;6214;48.012;7.862;2023-07-31T07:12:38;5.82;;;1.65;;
12302;SDS011;6214;48.012;7.862;2023-07-31T07:15:06;5.88;;;1.67;;
12302;SDS011;6214;48.012;7.862;2023-07-31T07:17:33;6.90;;;2.10;;
12302;SDS011;6214;48.012;7.862;2023-07-31T07:20:00;6.47;;;1.60;;
12302;SDS011;6214;48.012;7.862;2023-07-31T07:22:27;5.97;;;1.50;;
12302;SDS011;6214;48.012;7.862;2023-07-31T07:24:55;5.75;;;1.80;;
12302;SDS011;6214;48.012;7.862;2023-07-31T07:27:23;5.60;;;1.77;;
12302;SDS011;6214;48.012;7.862;2023-07-31T07:29:50;6.18;;;1.65;;
12302;SDS011;6214;48.012;7.862;2023-07-31T07:32:20;5.68;;;1.50;;
12302;SDS011;6214;48.012;7.862;2023-07-31T07:34:48;5.55;;;1.40;;
12302;SDS011;6214;48.012;7.862;2023-07-31T07:37:15;5.50;;;1.60;;
12302;SDS011;6214;48.012;7.862;2023-07-31T07:39:42;6.25;;;1.70;;
12302;SDS011;6214;48.012;7.862;2023-07-31T07:42:10;5.80;;;1.65;;
12302;SDS011;6214;48.012;7.862;2023-07-31T07:44:37;6.40;;;1.67;;
12302;SDS011;6214;48.012;7.862;2023-07-31T07:47:04;5.75;;;1.80;;
12302;SDS011;6214;48.012;7.862;2023-07-31T07:49:34;5.50;;;1.40;;
12302;SDS011;6214;48.012;7.862;2023-07-31T07:52:02;6.97;;;1.60;;
12302;SDS011;6214;48.012;7.862;2023-07-31T07:54:30;6.50;;;1.60;;
12302;SDS011;6214;48.012;7.862;2023-07-31T07:56:57;5.70;;;1.60;;
12302;SDS011;6214;48.012;7.862;2023-07-31T07:59:26;5.60;;;1.40;;
12302;SDS011;6214;48.012;7.862;2023-07-31T08:01:53;5.40;;;1.60;;
12302;SDS011;6214;48.012;7.862;2023-07-31T08:04:20;6.05;;;1.95;;
12302;SDS011;6214;48.012;7.862;2023-07-31T08:06:47;6.10;;;1.60;;
12302;SDS011;6214;48.012;7.862;2023-07-31T08:09:14;5.80;;;1.60;;
12302;SDS011;6214;48.012;7.862;2023-07-31T08:11:41;6.22;;;1.75;;
12302;SDS011;6214;48.012;7.862;2023-07-31T08:14:08;6.05;;;1.80;;
12302;SDS011;6214;48.012;7.862;2023-07-31T08:16:35;5.53;;;1.60;;
12302;SDS011;6214;48.012;7.862;2023-07-31T08:19:02;6.57;;;1.80;;
12302;SDS011;6214;48.012;7.862;2023-07-31T08:21:29;7.20;;;1.90;;
12302;SDS011;6214;48.012;7.862;2023-07-31T08:23:56;5.82;;;1.40;;
12302;SDS011;6214;48.012;7.862;2023-07-31T08:26:23;7.07;;;1.85;;
12302;SDS011;6214;48.012;7.862;2023-07-31T08:28:50;5.80;;;1.60;;
12302;SDS011;6214;48.012;7.862;2023-07-31T08:31:18;6.10;;;1.50;;
12302;SDS011;6214;48.012;7.862;2023-07-31T08:33:45;6.13;;;1.60;;
12302;SDS011;6214;48.012;7.862;2023-07-31T08:36:12;6.05;;;1.60;;
12302;SDS011;6214;48.012;7.862;2023-07-31T08:38:39;5.82;;;1.50;;
12302;SDS011;6214;48.012;7.862;2023-07-31T08:41:06;6.75;;;1.77;;
12302;SDS011;6214;48.012;7.862;2023-07-31T08:43:33;6.05;;;1.65;;
12302;SDS011;6214;48.012;7.862;2023-07-31T08:46:01;5.30;;;1.70;;
12302;SDS011;6214;48.012;7.862;2023-07-31T08:48:29;5.80;;;1.50;;
12302;SDS011;6214;48.012;7.862;2023-07-31T08:50:58;5.28;;;1.50;;
12302;SDS011;6214;48.012;7.862;2023-07-31T08:53:25;5.15;;;1.67;;
12302;SDS011;6214;48.012;7.862;2023-07-31T08:55:53;5.67;;;1.80;;
12302;SDS011;6214;48.012;7.862;2023-07-31T08:58:21;6.63;;;1.40;;
12302;SDS011;6214;48.012;7.862;2023-07-31T09:00:50;5.10;;;1.35;;
12302;SDS011;6214;48.012;7.862;2023-07-31T09:03:20;5.20;;;1.50;;
12302;SDS011;6214;48.012;7.862;2023-07-31T09:05:50;6.00;;;1.60;;
12302;SDS011;6214;48.012;7.862;2023-07-31T09:08:18;5.65;;;1.50;;
12302;SDS011;6214;48.012;7.862;2023-07-31T09:10:47;5.30;;;1.80;;
12302;SDS011;6214;48.012;7.862;2023-07-31T09:13:16;4.83;;;1.30;;
12302;SDS011;6214;48.012;7.862;2023-07-31T09:15:44;6.30;;;1.80;;
12302;SDS011;6214;48.012;7.862;2023-07-31T09:18:11;5.43;;;1.70;;
12302;SDS011;6214;48.012;7.862;2023-07-31T09:20:40;5.00;;;1.50;;
12302;SDS011;6214;48.012;7.862;2023-07-31T09:23:08;5.93;;;1.60;;
12302;SDS011;6214;48.012;7.862;2023-07-31T09:25:37;5.45;;;1.50;;
12302;SDS011;6214;48.012;7.862;2023-07-31T09:28:06;5.10;;;1.40;;
12302;SDS011;6214;48.012;7.862;2023-07-31T09:30:48;5.47;;;1.57;;
12302;SDS011;6214;48.012;7.862;2023-07-31T09:33:17;5.90;;;1.75;;
12302;SDS011;6214;48.012;7.862;2023-07-31T09:35:44;5.60;;;1.50;;
12302;SDS011;6214;48.012;7.862;2023-07-31T09:38:14;5.30;;;1.60;;
12302;SDS011;6214;48.012;7.862;2023-07-31T09:40:43;5.25;;;1.50;;
12302;SDS011;6214;48.012;7.862;2023-07-31T09:43:12;6.05;;;1.65;;
12302;SDS011;6214;48.012;7.862;2023-07-31T09:45:41;5.13;;;1.40;;
12302;SDS011;6214;48.012;7.862;2023-07-31T09:48:09;5.53;;;1.60;;
12302;SDS011;6214;48.012;7.862;2023-07-31T09:50:46;5.90;;;1.80;;
12302;SDS011;6214;48.012;7.862;2023-07-31T09:53:15;5.35;;;1.92;;
12302;SDS011;6214;48.012;7.862;2023-07-31T09:55:43;6.00;;;1.50;;
12302;SDS011;6214;48.012;7.862;2023-07-31T09:58:11;6.10;;;1.80;;
12302;SDS011;6214;48.012;7.862;2023-07-31T10:00:39;5.30;;;1.50;;
12302;SDS011;6214;48.012;7.862;2023-07-31T10:03:08;5.80;;;1.90;;
12302;SDS011;6214;48.012;7.862;2023-07-31T10:05:40;5.32;;;1.52;;
12302;SDS011;6214;48.012;7.862;2023-07-31T10:08:12;5.55;;;1.77;;
12302;SDS011;6214;48.012;7.862;2023-07-31T10:10:42;4.93;;;1.50;;
12302;SDS011;6214;48.012;7.862;2023-07-31T10:13:10;7.00;;;1.70;;
12302;SDS011;6214;48.012;7.862;2023-07-31T10:15:38;6.38;;;1.63;;
12302;SDS011;6214;48.012;7.862;2023-07-31T10:18:07;5.60;;;1.42;;
12302;SDS011;6214;48.012;7.862;2023-07-31T10:20:35;6.32;;;1.90;;
12302;SDS011;6214;48.012;7.862;2023-07-31T10:23:03;5.45;;;1.70;;
12302;SDS011;6214;48.012;7.862;2023-07-31T10:25:30;5.13;;;1.70;;
12302;SDS011;6214;48.012;7.862;2023-07-31T10:27:59;6.25;;;1.80;;
12302;SDS011;6214;48.012;7.862;2023-07-31T10:30:27;6.60;;;1.80;;
12302;SDS011;6214;48.012;7.862;2023-07-31T10:32:57;6.78;;;1.83;;
12302;SDS011;6214;48.012;7.862;2023-07-31T10:35:24;5.30;;;1.60;;
12302;SDS011;6214;48.012;7.862;2023-07-31T10:37:52;5.80;;;1.83;;
12302;SDS011;6214;48.012;7.862;2023-07-31T10:40:19;8.15;;;2.17;;
12302;SDS011;6214;48.012;7.862;2023-07-31T10:42:53;9.52;;;2.60;;
12302;SDS011;6214;48.012;7.862;2023-07-31T10:45:31;5.35;;;1.80;;
12302;SDS011;6214;48.012;7.862;2023-07-31T10:50:36;6.70;;;2.00;;
12302;SDS011;6214;48.012;7.862;2023-07-31T10:53:04;6.20;;;1.70;;
12302;SDS011;6214;48.012;7.862;2023-07-31T10:55:38;6.67;;;2.10;;
12302;SDS011;6214;48.012;7.862;2023-07-31T10:58:08;5.50;;;1.80;;
12302;SDS011;6214;48.012;7.862;2023-07-31T11:00:39;8.50;;;2.00;;
12302;SDS011;6214;48.012;7.862;2023-07-31T11:03:12;6.25;;;2.30;;
12302;SDS011;6214;48.012;7.862;2023-07-31T11:08:26;6.10;;;1.90;;
12302;SDS011;6214;48.012;7.862;2023-07-31T11:13:28;5.20;;;1.70;;
12302;SDS011;6214;48.012;7.862;2023-07-31T11:15:56;6.60;;;1.90;;
12302;SDS011;6214;48.012;7.862;2023-07-31T11:18:23;7.23;;;2.07;;
12302;SDS011;6214;48.012;7.862;2023-07-31T11:20:51;6.10;;;2.00;;
12302;SDS011;6214;48.012;7.862;2023-07-31T11:23:18;5.80;;;1.98;;
12302;SDS011;6214;48.012;7.862;2023-07-31T11:25:46;5.93;;;2.00;;
12302;SDS011;6214;48.012;7.862;2023-07-31T11:28:14;5.90;;;1.92;;
12302;SDS011;6214;48.012;7.862;2023-07-31T11:30:43;5.77;;;1.87;;
12302;SDS011;6214;48.012;7.862;2023-07-31T11:33:11;6.00;;;2.20;;
12302;SDS011;6214;48.012;7.862;2023-07-31T11:35:46;5.90;;;1.50;;
12302;SDS011;6214;48.012;7.862;2023-07-31T11:38:25;5.50;;;1.80;;
12302;SDS011;6214;48.012;7.862;2023-07-31T11:40:54;6.60;;;1.90;;
12302;SDS011;6214;48.012;7.862;2023-07-31T11:43:23;6.32;;;1.65;;
12302;SDS011;6214;48.012;7.862;2023-07-31T11:45:51;7.63;;;2.03;;
12302;SDS011;6214;48.012;7.862;2023-07-31T11:48:57;7.07;;;2.00;;
12302;SDS011;6214;48.012;7.862;2023-07-31T11:51:13;6.60;;;2.10;;
12302;SDS011;6214;48.012;7.862;2023-07-31T11:53:41;5.75;;;1.90;;
12302;SDS011;6214;48.012;7.862;2023-07-31T11:56:16;5.97;;;1.90;;
12302;SDS011;6214;48.012;7.862;2023-07-31T11:58:46;5.82;;;1.80;;
12302;SDS011;6214;48.012;7.862;2023-07-31T12:01:15;5.50;;;1.90;;
12302;SDS011;6214;48.012;7.862;2023-07-31T12:03:45;6.20;;;1.95;;
12302;SDS011;6214;48.012;7.862;2023-07-31T12:06:13;6.57;;;2.00;;
12302;SDS011;6214;48.012;7.862;2023-07-31T12:08:40;6.55;;;2.30;;
12302;SDS011;6214;48.012;7.862;2023-07-31T12:11:08;6.20;;;2.10;;
12302;SDS011;6214;48.012;7.862;2023-07-31T12:13:39;6.40;;;1.90;;
12302;SDS011;6214;48.012;7.862;2023-07-31T12:16:06;5.80;;;2.00;;
12302;SDS011;6214;48.012;7.862;2023-07-31T12:18:35;6.63;;;2.15;;
12302;SDS011;6214;48.012;7.862;2023-07-31T12:21:05;5.60;;;1.90;;
12302;SDS011;6214;48.012;7.862;2023-07-31T12:23:35;6.50;;;1.90;;
12302;SDS011;6214;48.012;7.862;2023-07-31T12:28:30;6.40;;;1.83;;
12302;SDS011;6214;48.012;7.862;2023-07-31T12:31:08;6.53;;;2.10;;
12302;SDS011;6214;48.012;7.862;2023-07-31T12:33:37;6.00;;;2.05;;
12302;SDS011;6214;48.012;7.862;2023-07-31T12:36:09;6.88;;;2.00;;
12302;SDS011;6214;48.012;7.862;2023-07-31T12:38:41;6.20;;;2.10;;
12302;SDS011;6214;48.012;7.862;2023-07-31T12:41:08;5.50;;;2.00;;
12302;SDS011;6214;48.012;7.862;2023-07-31T12:43:37;5.80;;;1.90;;
12302;SDS011;6214;48.012;7.862;2023-07-31T12:46:05;5.60;;;1.98;;
12302;SDS011;6214;48.012;7.862;2023-07-31T12:48:34;6.50;;;2.17;;
12302;SDS011;6214;48.012;7.862;2023-07-31T12:51:02;5.80;;;1.80;;
12302;SDS011;6214;48.012;7.862;2023-07-31T12:53:29;5.97;;;2.10;;
12302;SDS011;6214;48.012;7.862;2023-07-31T12:55:57;6.40;;;2.30;;
12302;SDS011;6214;48.012;7.862;2023-07-31T12:58:24;7.15;;;2.30;;
12302;SDS011;6214;48.012;7.862;2023-07-31T13:00:52;5.63;;;1.98;;
12302;SDS011;6214;48.012;7.862;2023-07-31T13:03:19;6.20;;;2.22;;
12302;SDS011;6214;48.012;7.862;2023-07-31T13:05:46;7.57;;;2.40;;
12302;SDS011;6214;48.012;7.862;2023-07-31T13:08:13;6.57;;;2.03;;
12302;SDS011;6214;48.012;7.862;2023-07-31T13:10:42;5.80;;;1.80;;
12302;SDS011;6214;48.012;7.862;2023-07-31T13:13:09;5.68;;;2.00;;
12302;SDS011;6214;48.012;7.862;2023-07-31T13:15:36;7.03;;;2.00;;
12302;SDS011;6214;48.012;7.862;2023-07-31T13:18:04;6.40;;;2.30;;
12302;SDS011;6214;48.012;7.862;2023-07-31T13:20:31;6.15;;;2.10;;
12302;SDS011;6214;48.012;7.862;2023-07-31T13:22:58;6.60;;;2.25;;
12302;SDS011;6214;48.012;7.862;2023-07-31T13:25:25;6.22;;;2.00;;
12302;SDS011;6214;48.012;7.862;2023-07-31T13:27:52;6.25;;;2.10;;
12302;SDS011;6214;48.012;7.862;2023-07-31T13:30:19;7.47;;;2.23;;
12302;SDS011;6214;48.012;7.862;2023-07-31T13:32:46;5.82;;;2.20;;
12302;SDS011;6214;48.012;7.862;2023-07-31T13:35:13;6.00;;;2.20;;
12302;SDS011;6214;48.012;7.862;2023-07-31T13:37:40;5.50;;;2.20;;
12302;SDS011;6214;48.012;7.862;2023-07-31T13:40:07;6.03;;;1.90;;
12302;SDS011;6214;48.012;7.862;2023-07-31T13:42:34;5.57;;;1.97;;
12302;SDS011;6214;48.012;7.862;2023-07-31T13:45:01;5.60;;;1.80;;
12302;SDS011;6214;48.012;7.862;2023-07-31T13:47:32;5.97;;;2.35;;
12302;SDS011;6214;48.012;7.862;2023-07-31T13:50:01;5.40;;;1.80;;
12302;SDS011;6214;48.012;7.862;2023-07-31T13:52:28;6.97;;;2.20;;
12302;SDS011;6214;48.012;7.862;2023-07-31T13:54:55;5.88;;;2.20;;
12302;SDS011;6214;48.012;7.862;2023-07-31T13:57:22;5.90;;;2.10;;
12302;SDS011;6214;48.012;7.862;2023-07-31T13:59:50;5.35;;;2.10;;
12302;SDS011;6214;48.012;7.862;2023-07-31T14:02:17;6.63;;;2.40;;
12302;SDS011;6214;48.012;7.862;2023-07-31T14:04:44;6.10;;;2.13;;
12302;SDS011;6214;48.012;7.862;2023-07-31T14:07:11;6.30;;;2.20;;
12302;SDS011;6214;48.012;7.862;2023-07-31T14:09:38;5.50;;;2.00;;
12302;SDS011;6214;48.012;7.862;2023-07-31T14:12:05;5.30;;;2.17;;
12302;SDS011;6214;48.012;7.862;2023-07-31T14:14:32;5.43;;;2.10;;
12302;SDS011;6214;48.012;7.862;2023-07-31T14:17:01;6.78;;;2.30;;
12302;SDS011;6214;48.012;7.862;2023-07-31T14:19:28;6.25;;;2.17;;
12302;SDS011;6214;48.012;7.862;2023-07-31T14:21:57;5.30;;;1.90;;
12302;SDS011;6214;48.012;7.862;2023-07-31T14:24:36;6.00;;;2.10;;
12302;SDS011;6214;48.012;7.862;2023-07-31T14:27:04;5.53;;;2.03;;
12302;SDS011;6214;48.012;7.862;2023-07-31T14:29:31;5.88;;;2.35;;
12302;SDS011;6214;48.012;7.862;2023-07-31T14:31:58;6.95;;;2.28;;
12302;SDS011;6214;48.012;7.862;2023-07-31T14:34:26;6.90;;;2.30;;
12302;SDS011;6214;48.012;7.862;2023-07-31T14:36:53;5.50;;;2.20;;
12302;SDS011;6214;48.012;7.862;2023-07-31T14:39:20;6.97;;;2.53;;
12302;SDS011;6214;48.012;7.862;2023-07-31T14:41:47;7.10;;;2.10;;
12302;SDS011;6214;48.012;7.862;2023-07-31T14:44:15;5.65;;;2.10;;
12302;SDS011;6214;48.012;7.862;2023-07-31T14:46:42;6.78;;;2.30;;
12302;SDS011;6214;48.012;7.862;2023-07-31T14:49:09;6.63;;;2.17;;
12302;SDS011;6214;48.012;7.862;2023-07-31T14:51:36;5.60;;;2.30;;
12302;SDS011;6214;48.012;7.862;2023-07-31T14:54:03;5.40;;;2.00;;
12302;SDS011;6214;48.012;7.862;2023-07-31T14:56:30;5.97;;;2.10;;
12302;SDS011;6214;48.012;7.862;2023-07-31T14:58:57;5.93;;;2.08;;
12302;SDS011;6214;48.012;7.862;2023-07-31T15:01:24;5.80;;;1.90;;
12302;SDS011;6214;48.012;7.862;2023-07-31T15:03:52;5.95;;;2.10;;
12302;SDS011;6214;48.012;7.862;2023-07-31T15:06:19;5.25;;;2.00;;
12302;SDS011;6214;48.012;7.862;2023-07-31T15:08:46;5.30;;;1.95;;
12302;SDS011;6214;48.012;7.862;2023-07-31T15:11:13;5.63;;;2.00;;
12302;SDS011;6214;48.012;7.862;2023-07-31T15:13:42;6.13;;;2.10;;
12302;SDS011;6214;48.012;7.862;2023-07-31T15:16:09;6.00;;;2.50;;
12302;SDS011;6214;48.012;7.862;2023-07-31T15:18:36;5.93;;;1.80;;
12302;SDS011;6214;48.012;7.862;2023-07-31T15:21:03;6.30;;;2.10;;